Time;durP1;ratioP1;P1;durP2;ratioP2;P2;SDS_P1;SDS_P2;PMS_P1;PMS_P2;Temp;Humidity;BMP_temperature;BMP_pressure;BME280_temperature;BME280_humidity;BME280_pressure;Samples;Min_cycle;Max_cycle;Signal;HPM_P1;HPM_P2
2021/08/15 00:00:36;;;;;;;;;;;21.70;62.00;;;;;;5155972;27;19937;-75
2021/08/15 00:03:17;;;;;;;;;;;21.70;62.00;;;;;;5155980;27;19919;-75
2021/08/15 00:05:51;;;;;;;;;;;21.70;62.00;;;;;;5138744;27;19927;-75
2021/08/15 00:08:33;;;;;;;;;;;21.60;62.00;;;;;;5155958;27;20336;-75
2021/08/15 00:11:03;;;;;;;;;;;21.60;62.10;;;;;;5138006;27;19934;-75
2021/08/15 00:13:57;;;;;;;;;;;21.50;62.30;;;;;;5156116;27;19927;-75
2021/08/15 00:16:29;;;;;;;;;;;21.50;62.50;;;;;;5155104;27;19933;-75
2021/08/15 00:19:14;;;;;;;;;;;21.50;62.40;;;;;;5156174;27;19923;-75
2021/08/15 00:21:46;;;;;;;;;;;21.50;62.60;;;;;;5155386;27;19927;-75
2021/08/15 00:24:35;;;;;;;;;;;21.50;62.50;;;;;;5155551;27;19923;-75
2021/08/15 00:27:15;;;;;;;;;;;21.50;62.60;;;;;;5156260;27;19975;-75
2021/08/15 00:29:47;;;;;;;;;;;21.50;62.70;;;;;;5155613;27;19923;-75
2021/08/15 00:32:18;;;;;;;;;;;21.50;62.80;;;;;;5155155;27;20366;-75
2021/08/15 00:34:52;;;;;;;;;;;21.50;62.80;;;;;;5155584;27;19923;-75
2021/08/15 00:37:31;;;;;;;;;;;21.50;62.70;;;;;;5155237;27;19923;-75
2021/08/15 00:40:07;;;;;;;;;;;21.50;62.80;;;;;;5088667;27;19927;-75
2021/08/15 00:42:45;;;;;;;;;;;21.40;62.80;;;;;;5155438;27;19923;-75
2021/08/15 00:45:23;;;;;;;;;;;21.40;62.90;;;;;;5155560;27;19966;-75
2021/08/15 00:48:14;;;;;;;;;;;21.40;63.00;;;;;;5153628;27;19985;-75
2021/08/15 00:51:05;;;;;;;;;;;21.40;62.90;;;;;;5154708;27;19970;-75
2021/08/15 00:53:36;;;;;;;;;;;21.40;62.90;;;;;;5155078;27;19962;-75
2021/08/15 00:56:12;;;;;;;;;;;21.40;63.00;;;;;;5155266;27;19927;-75
2021/08/15 00:58:44;;;;;;;;;;;21.40;63.00;;;;;;5154472;27;20449;-75
2021/08/15 01:01:33;;;;;;;;;;;21.30;63.00;;;;;;5154227;27;20416;-75
2021/08/15 01:04:19;;;;;;;;;;;21.30;63.20;;;;;;5154757;27;19923;-75
2021/08/15 01:06:51;;;;;;;;;;;21.30;63.20;;;;;;5154328;27;20320;-75
2021/08/15 01:09:40;;;;;;;;;;;21.20;63.50;;;;;;5153500;27;19923;-75
2021/08/15 01:12:26;;;;;;;;;;;21.20;63.70;;;;;;5147939;27;20456;-75
2021/08/15 01:15:16;;;;;;;;;;;21.10;63.70;;;;;;5154688;27;19927;-75
2021/08/15 01:18:21;;;;;;;;;;;21.00;64.10;;;;;;5140205;27;19962;-75
2021/08/15 01:21:08;;;;;;;;;;;21.00;64.30;;;;;;5153615;27;19988;-75
2021/08/15 01:23:54;;;;;;;;;;;20.90;64.30;;;;;;5154358;27;19945;-75
2021/08/15 01:26:31;;;;;;;;;;;20.90;64.20;;;;;;5155088;27;19931;-75
2021/08/15 01:29:02;;;;;;;;;;;20.90;64.30;;;;;;5154081;27;20001;-75
2021/08/15 01:31:37;;;;;;;;;;;20.90;64.60;;;;;;5154641;27;19929;-75
2021/08/15 01:34:12;;;;;;;;;;;20.90;64.60;;;;;;5153917;27;19968;-75
2021/08/15 01:36:47;;;;;;;;;;;20.80;64.40;;;;;;5154465;27;19923;-75
2021/08/15 01:39:19;;;;;;;;;;;20.80;64.50;;;;;;5154362;27;19923;-75
2021/08/15 01:41:55;;;;;;;;;;;20.80;64.40;;;;;;5154502;27;19923;-75
2021/08/15 01:44:31;;;;;;;;;;;20.80;64.40;;;;;;5154503;27;20006;-75
2021/08/15 01:47:13;;;;;;;;;;;20.70;64.50;;;;;;5154178;27;20331;-74
2021/08/15 01:50:08;;;;;;;;;;;20.70;64.40;;;;;;5154056;27;19925;-75
2021/08/15 01:52:59;;;;;;;;;;;20.70;64.70;;;;;;5151027;27;19931;-75
2021/08/15 01:55:52;;;;;;;;;;;20.60;65.80;;;;;;5151359;27;19976;-75
2021/08/15 01:58:43;;;;;;;;;;;20.60;64.80;;;;;;5152328;27;19927;-75
2021/08/15 02:01:37;;;;;;;;;;;20.50;64.80;;;;;;5135720;27;20002;-75
2021/08/15 02:04:18;;;;;;;;;;;20.60;65.00;;;;;;5152697;27;20002;-75
2021/08/15 02:07:13;;;;;;;;;;;20.50;65.20;;;;;;5154245;27;20459;-75
2021/08/15 02:09:56;;;;;;;;;;;20.50;65.10;;;;;;5152781;27;19970;-74
2021/08/15 02:12:40;;;;;;;;;;;20.40;65.00;;;;;;5152669;27;20374;-75
2021/08/15 02:15:23;;;;;;;;;;;20.40;65.20;;;;;;5152971;27;19923;-75
2021/08/15 02:18:17;;;;;;;;;;;20.40;65.10;;;;;;5151658;27;19922;-75
2021/08/15 02:21:12;;;;;;;;;;;20.40;64.80;;;;;;5153878;27;19919;-75
2021/08/15 02:23:40;;;;;;;;;;;20.40;64.80;;;;;;5155703;27;19923;-75
2021/08/15 02:26:22;;;;;;;;;;;20.40;64.70;;;;;;5160233;27;19945;-75
2021/08/15 02:29:17;;;;;;;;;;;20.40;64.60;;;;;;5160930;27;19995;-75
2021/08/15 02:31:50;;;;;;;;;;;20.30;64.50;;;;;;5141995;27;19922;-75
2021/08/15 02:34:35;;;;;;;;;;;20.30;64.40;;;;;;5160770;27;19923;-75
2021/08/15 02:37:06;;;;;;;;;;;20.30;64.80;;;;;;5142669;27;20302;-75
2021/08/15 02:40:01;;;;;;;;;;;20.20;64.50;;;;;;5160691;27;20388;-75
2021/08/15 02:42:33;;;;;;;;;;;20.20;64.50;;;;;;5160449;27;19946;-75
2021/08/15 02:45:03;;;;;;;;;;;20.20;64.50;;;;;;5160264;27;20064;-75
2021/08/15 02:47:34;;;;;;;;;;;20.10;64.40;;;;;;5160313;27;20017;-74
2021/08/15 02:50:06;;;;;;;;;;;20.10;64.50;;;;;;5160695;27;19962;-75
2021/08/15 02:52:46;;;;;;;;;;;20.10;64.40;;;;;;5074669;27;19930;-75
2021/08/15 02:55:17;;;;;;;;;;;20.00;64.40;;;;;;5160810;27;19923;-75
2021/08/15 02:58:11;;;;;;;;;;;20.00;64.40;;;;;;5159631;27;19917;-74
2021/08/15 03:00:43;;;;;;;;;;;20.00;64.40;;;;;;5160351;27;20388;-75
2021/08/15 03:03:26;;;;;;;;;;;19.90;64.40;;;;;;5159830;27;19919;-75
2021/08/15 03:06:21;;;;;;;;;;;19.90;64.50;;;;;;5146454;27;20427;-75
2021/08/15 03:09:18;;;;;;;;;;;19.80;64.60;;;;;;5157681;27;19931;-75
2021/08/15 03:11:48;;;;;;;;;;;19.80;64.50;;;;;;5149387;27;19970;-75
2021/08/15 03:14:21;;;;;;;;;;;19.80;64.50;;;;;;5160083;27;20406;-75
2021/08/15 03:16:50;;;;;;;;;;;19.70;64.60;;;;;;5159907;27;19970;-74
2021/08/15 03:19:20;;;;;;;;;;;19.70;64.70;;;;;;5160411;27;19923;-75
2021/08/15 03:21:49;;;;;;;;;;;19.60;64.80;;;;;;5159497;27;19923;-75
2021/08/15 03:24:18;;;;;;;;;;;19.60;64.80;;;;;;5160191;27;19923;-75
2021/08/15 03:26:46;;;;;;;;;;;19.60;64.90;;;;;;5159877;27;20017;-74
2021/08/15 03:29:16;;;;;;;;;;;19.50;64.80;;;;;;5141780;27;20041;-75
2021/08/15 03:31:46;;;;;;;;;;;19.50;64.80;;;;;;5159590;27;19927;-75
2021/08/15 03:34:18;;;;;;;;;;;19.50;65.00;;;;;;5160058;27;19927;-74
2021/08/15 03:36:46;;;;;;;;;;;19.40;65.00;;;;;;5155805;27;19954;-75
2021/08/15 03:39:29;;;;;;;;;;;19.40;65.00;;;;;;5139834;27;19941;-74
2021/08/15 03:41:58;;;;;;;;;;;19.40;65.10;;;;;;5156362;27;19923;-74
2021/08/15 03:44:41;;;;;;;;;;;19.40;65.00;;;;;;5152706;27;20379;-74
2021/08/15 03:47:31;;;;;;;;;;;19.40;65.00;;;;;;5155821;27;19959;-74
2021/08/15 03:50:19;;;;;;;;;;;19.40;65.00;;;;;;5155689;27;20398;-74
2021/08/15 03:52:58;;;;;;;;;;;19.40;64.90;;;;;;5137971;27;19956;-74
2021/08/15 03:55:34;;;;;;;;;;;19.30;64.80;;;;;;5155944;27;19930;-74
2021/08/15 03:58:23;;;;;;;;;;;19.30;64.90;;;;;;5155561;27;19923;-74
2021/08/15 04:01:02;;;;;;;;;;;19.30;65.00;;;;;;5155886;27;19950;-74
2021/08/15 04:03:31;;;;;;;;;;;19.30;66.10;;;;;;5155706;27;20466;-74
2021/08/15 04:06:08;;;;;;;;;;;19.30;65.10;;;;;;5156295;27;20345;-75
2021/08/15 04:08:44;;;;;;;;;;;19.20;65.10;;;;;;5155599;27;19923;-74
2021/08/15 04:11:22;;;;;;;;;;;19.30;65.20;;;;;;5156015;27;19927;-75
2021/08/15 04:13:57;;;;;;;;;;;19.20;65.10;;;;;;5139086;27;20132;-75
2021/08/15 04:16:32;;;;;;;;;;;19.20;65.20;;;;;;5155861;27;19930;-74
2021/08/15 04:19:14;;;;;;;;;;;19.20;65.20;;;;;;5155822;27;20053;-75
2021/08/15 04:21:50;;;;;;;;;;;19.20;65.10;;;;;;5155391;27;20015;-75
2021/08/15 04:24:23;;;;;;;;;;;19.20;65.20;;;;;;5155618;27;19958;-75
2021/08/15 04:26:56;;;;;;;;;;;19.10;65.20;;;;;;5155711;27;19927;-75
2021/08/15 04:29:35;;;;;;;;;;;19.10;65.30;;;;;;5155475;27;20434;-75
2021/08/15 04:32:07;;;;;;;;;;;19.10;65.50;;;;;;5154912;27;19927;-75
2021/08/15 04:34:38;;;;;;;;;;;19.10;65.50;;;;;;5156049;27;19969;-75
2021/08/15 04:37:09;;;;;;;;;;;19.00;65.50;;;;;;5155602;27;19929;-75
2021/08/15 04:39:39;;;;;;;;;;;19.00;65.50;;;;;;5155311;27;19923;-75
2021/08/15 04:42:08;;;;;;;;;;;19.00;65.40;;;;;;5155305;27;20005;-75
2021/08/15 04:44:37;;;;;;;;;;;19.00;65.40;;;;;;5155618;27;19974;-75
2021/08/15 04:47:06;;;;;;;;;;;19.00;65.20;;;;;;5153630;27;19927;-75
2021/08/15 04:49:34;;;;;;;;;;;19.00;65.20;;;;;;5155588;27;20009;-75
2021/08/15 04:52:03;;;;;;;;;;;18.90;65.20;;;;;;5154819;27;20017;-75
2021/08/15 04:54:31;;;;;;;;;;;19.00;65.20;;;;;;5136495;27;20002;-74
2021/08/15 04:56:59;;;;;;;;;;;18.90;65.20;;;;;;5155221;27;19923;-75
2021/08/15 04:59:28;;;;;;;;;;;18.90;65.10;;;;;;5154840;27;19978;-75
2021/08/15 05:01:57;;;;;;;;;;;18.90;65.20;;;;;;5155209;27;19923;-74
2021/08/15 05:04:26;;;;;;;;;;;18.90;65.40;;;;;;5154999;27;19931;-74
2021/08/15 05:06:54;;;;;;;;;;;18.80;65.30;;;;;;5155120;27;19923;-75
2021/08/15 05:09:24;;;;;;;;;;;18.80;65.50;;;;;;5154940;27;19924;-75
2021/08/15 05:11:52;;;;;;;;;;;18.70;65.60;;;;;;5154747;27;19977;-75
2021/08/15 05:14:19;;;;;;;;;;;18.70;65.70;;;;;;5155034;27;19930;-75
2021/08/15 05:16:45;;;;;;;;;;;18.70;65.60;;;;;;5154777;27;20323;-75
2021/08/15 05:19:11;;;;;;;;;;;18.70;65.70;;;;;;5155014;27;20393;-75
2021/08/15 05:21:37;;;;;;;;;;;18.60;65.80;;;;;;5135788;27;19923;-74
2021/08/15 05:24:04;;;;;;;;;;;18.60;65.90;;;;;;5154114;27;19923;-74
2021/08/15 05:26:30;;;;;;;;;;;18.60;66.00;;;;;;5154393;27;20010;-75
2021/08/15 05:28:56;;;;;;;;;;;18.50;66.10;;;;;;5154718;27;20019;-75
2021/08/15 05:31:22;;;;;;;;;;;18.50;66.20;;;;;;5154626;27;19923;-75
2021/08/15 05:33:48;;;;;;;;;;;18.50;66.20;;;;;;5135293;27;19924;-74
2021/08/15 05:36:14;;;;;;;;;;;18.50;66.30;;;;;;5154592;27;19975;-74
2021/08/15 05:38:41;;;;;;;;;;;18.50;66.40;;;;;;5154438;27;19924;-74
2021/08/15 05:41:07;;;;;;;;;;;18.50;66.40;;;;;;5154123;27;19923;-74
2021/08/15 05:43:33;;;;;;;;;;;18.60;66.50;;;;;;5154250;27;19923;-74
2021/08/15 05:45:59;;;;;;;;;;;18.60;66.50;;;;;;5154572;27;19923;-74
2021/08/15 05:48:25;;;;;;;;;;;18.60;66.50;;;;;;5154461;27;20155;-74
2021/08/15 05:50:51;;;;;;;;;;;18.50;66.60;;;;;;5153926;27;19923;-74
2021/08/15 05:53:18;;;;;;;;;;;18.50;66.70;;;;;;5154428;27;19991;-74
2021/08/15 05:55:44;;;;;;;;;;;18.50;66.80;;;;;;5153981;27;19927;-74
2021/08/15 05:58:10;;;;;;;;;;;18.60;67.00;;;;;;5153854;27;19962;-75
2021/08/15 06:00:37;;;;;;;;;;;18.60;67.00;;;;;;5154233;27;19923;-74
2021/08/15 06:03:03;;;;;;;;;;;18.60;66.90;;;;;;5154159;27;19951;-75
2021/08/15 06:05:30;;;;;;;;;;;18.60;66.90;;;;;;5154130;27;20100;-75
2021/08/15 06:07:58;;;;;;;;;;;18.70;66.90;;;;;;5135453;27;19923;-74
2021/08/15 06:10:24;;;;;;;;;;;18.70;67.00;;;;;;5153898;27;19934;-74
2021/08/15 06:12:50;;;;;;;;;;;18.70;67.20;;;;;;5153609;27;19992;-75
2021/08/15 06:15:16;;;;;;;;;;;18.70;67.50;;;;;;5154308;27;19923;-74
2021/08/15 06:17:43;;;;;;;;;;;18.70;67.50;;;;;;5153569;27;19923;-74
2021/08/15 06:20:10;;;;;;;;;;;18.80;67.70;;;;;;5153791;27;20374;-74
2021/08/15 06:22:40;;;;;;;;;;;18.80;67.90;;;;;;5154063;27;19923;-74
2021/08/15 06:25:07;;;;;;;;;;;18.80;68.00;;;;;;5153472;27;19927;-75
2021/08/15 06:27:34;;;;;;;;;;;18.90;68.00;;;;;;5153827;27;20011;-74
2021/08/15 06:30:00;;;;;;;;;;;18.90;67.80;;;;;;5153150;27;19984;-73
2021/08/15 06:32:26;;;;;;;;;;;19.00;67.80;;;;;;5153922;27;19955;-75
2021/08/15 06:34:53;;;;;;;;;;;19.10;67.80;;;;;;5153670;27;19930;-75
2021/08/15 06:37:19;;;;;;;;;;;19.20;67.80;;;;;;5153322;27;19930;-75
2021/08/15 06:39:46;;;;;;;;;;;19.20;67.80;;;;;;5153448;27;20424;-75
2021/08/15 06:42:12;;;;;;;;;;;19.30;67.90;;;;;;5153214;27;19927;-75
2021/08/15 06:44:38;;;;;;;;;;;19.40;68.00;;;;;;5153958;27;19975;-74
2021/08/15 06:47:04;;;;;;;;;;;19.40;68.10;;;;;;5153400;27;19969;-75
2021/08/15 06:49:31;;;;;;;;;;;19.50;68.20;;;;;;5153543;27;19927;-74
2021/08/15 06:51:57;;;;;;;;;;;19.60;68.20;;;;;;5153599;27;19923;-74
2021/08/15 06:54:23;;;;;;;;;;;19.70;68.10;;;;;;5153555;27;20298;-74
2021/08/15 06:56:49;;;;;;;;;;;19.80;69.00;;;;;;5153366;27;19930;-75
2021/08/15 06:59:16;;;;;;;;;;;19.90;68.00;;;;;;5153402;27;19923;-75
2021/08/15 07:01:42;;;;;;;;;;;20.00;67.90;;;;;;5153637;27;19923;-75
2021/08/15 07:04:08;;;;;;;;;;;20.10;68.00;;;;;;5153018;27;19923;-75
2021/08/15 07:06:34;;;;;;;;;;;20.20;67.70;;;;;;5153540;27;19923;-75
2021/08/15 07:09:01;;;;;;;;;;;20.40;67.70;;;;;;5152849;27;19927;-74
2021/08/15 07:11:27;;;;;;;;;;;20.50;67.40;;;;;;5155835;27;19923;-75
2021/08/15 07:13:53;;;;;;;;;;;20.60;67.00;;;;;;5157378;27;19930;-75
2021/08/15 07:16:20;;;;;;;;;;;20.70;66.70;;;;;;5156720;27;19958;-75
2021/08/15 07:18:46;;;;;;;;;;;20.70;66.70;;;;;;5157254;27;19927;-75
2021/08/15 07:21:12;;;;;;;;;;;20.70;66.90;;;;;;5156916;27;19930;-74
2021/08/15 07:23:39;;;;;;;;;;;20.60;67.20;;;;;;5156800;27;19923;-75
2021/08/15 07:26:05;;;;;;;;;;;20.60;67.40;;;;;;5156640;27;20374;-74
2021/08/15 07:28:31;;;;;;;;;;;20.60;67.80;;;;;;5157048;27;19966;-75
2021/08/15 07:30:57;;;;;;;;;;;20.50;68.00;;;;;;5156892;27;19930;-75
2021/08/15 07:33:24;;;;;;;;;;;20.50;68.30;;;;;;5156453;27;20343;-74
2021/08/15 07:35:50;;;;;;;;;;;20.50;68.40;;;;;;5138097;27;19931;-74
2021/08/15 07:38:18;;;;;;;;;;;20.40;68.40;;;;;;5156339;27;20267;-74
2021/08/15 07:40:44;;;;;;;;;;;20.30;68.40;;;;;;5137634;27;19923;-75
2021/08/15 07:43:10;;;;;;;;;;;20.30;68.10;;;;;;5156718;27;19923;-74
2021/08/15 07:45:36;;;;;;;;;;;20.20;67.70;;;;;;5156390;27;19927;-74
2021/08/15 07:48:03;;;;;;;;;;;20.10;67.40;;;;;;5156323;27;19923;-74
2021/08/15 07:50:35;;;;;;;;;;;20.10;67.40;;;;;;5156412;27;19923;-74
2021/08/15 07:53:15;;;;;;;;;;;20.00;67.20;;;;;;5137548;27;20380;-74
2021/08/15 07:55:42;;;;;;;;;;;19.90;67.00;;;;;;5156202;27;19931;-75
2021/08/15 07:58:09;;;;;;;;;;;19.90;67.20;;;;;;5156292;27;19923;-75
2021/08/15 08:00:35;;;;;;;;;;;19.80;67.30;;;;;;5155892;27;19923;-75
2021/08/15 08:03:02;;;;;;;;;;;19.80;67.50;;;;;;5156377;27;20024;-74
2021/08/15 08:05:28;;;;;;;;;;;19.70;67.60;;;;;;5156002;27;20309;-75
2021/08/15 08:07:55;;;;;;;;;;;19.60;67.70;;;;;;5156079;27;20018;-74
2021/08/15 08:10:22;;;;;;;;;;;19.60;68.00;;;;;;5155927;27;19935;-74
2021/08/15 08:12:48;;;;;;;;;;;19.50;68.30;;;;;;5155145;27;20389;-75
2021/08/15 08:15:15;;;;;;;;;;;19.40;68.70;;;;;;5155976;27;20271;-74
2021/08/15 08:17:41;;;;;;;;;;;19.30;69.00;;;;;;5155552;27;19923;-74
2021/08/15 08:20:08;;;;;;;;;;;19.30;69.30;;;;;;5155860;27;19934;-74
2021/08/15 08:22:34;;;;;;;;;;;19.30;69.50;;;;;;5136619;27;19927;-75
2021/08/15 08:25:00;;;;;;;;;;;19.30;69.70;;;;;;5155741;27;19957;-74
2021/08/15 08:27:27;;;;;;;;;;;19.30;69.60;;;;;;5156013;27;20395;-74
2021/08/15 08:29:53;;;;;;;;;;;19.40;69.40;;;;;;5155961;27;20313;-75
2021/08/15 08:32:19;;;;;;;;;;;19.40;69.40;;;;;;5155652;27;19999;-75
2021/08/15 08:34:45;;;;;;;;;;;19.40;69.30;;;;;;5155750;27;19967;-74
2021/08/15 08:37:11;;;;;;;;;;;19.40;69.30;;;;;;5155593;27;19966;-74
2021/08/15 08:39:38;;;;;;;;;;;19.40;69.30;;;;;;5136841;27;19923;-74
2021/08/15 08:42:05;;;;;;;;;;;19.40;69.40;;;;;;5155620;27;19923;-74
2021/08/15 08:44:33;;;;;;;;;;;19.50;69.50;;;;;;5155251;27;19923;-75
2021/08/15 08:47:03;;;;;;;;;;;19.50;69.60;;;;;;5154851;27;20392;-74
2021/08/15 08:49:30;;;;;;;;;;;19.60;69.70;;;;;;5155194;27;19923;-74
2021/08/15 08:51:57;;;;;;;;;;;19.70;70.10;;;;;;5155451;27;20054;-74
2021/08/15 08:54:24;;;;;;;;;;;19.70;69.80;;;;;;5155144;27;19927;-74
2021/08/15 08:56:50;;;;;;;;;;;19.80;69.60;;;;;;5154663;27;19923;-74
2021/08/15 08:59:17;;;;;;;;;;;19.90;69.60;;;;;;5155075;27;19927;-75
2021/08/15 09:01:44;;;;;;;;;;;19.90;69.40;;;;;;5154658;27;20294;-74
2021/08/15 09:04:11;;;;;;;;;;;20.10;69.10;;;;;;5154906;27;19923;-74
2021/08/15 09:06:38;;;;;;;;;;;20.20;68.60;;;;;;5155380;27;19958;-75
2021/08/15 09:09:11;;;;;;;;;;;20.40;67.80;;;;;;5154437;27;20324;-74
2021/08/15 09:11:38;;;;;;;;;;;20.60;67.00;;;;;;5154670;27;19923;-75
2021/08/15 09:14:06;;;;;;;;;;;20.80;66.50;;;;;;5154600;27;19982;-74
2021/08/15 09:16:48;;;;;;;;;;;20.80;66.60;;;;;;5154500;27;20002;-74
2021/08/15 09:19:25;;;;;;;;;;;20.90;66.60;;;;;;5154715;27;20374;-74
2021/08/15 09:21:52;;;;;;;;;;;20.90;66.50;;;;;;5154079;27;19991;-74
2021/08/15 09:24:18;;;;;;;;;;;21.00;66.30;;;;;;5154233;27;19923;-74
2021/08/15 09:26:56;;;;;;;;;;;20.90;66.30;;;;;;5135592;27;19930;-75
2021/08/15 09:29:22;;;;;;;;;;;21.00;66.50;;;;;;5154524;27;19930;-74
2021/08/15 09:31:48;;;;;;;;;;;21.00;66.80;;;;;;5154768;27;19923;-74
2021/08/15 09:34:25;;;;;;;;;;;21.00;66.80;;;;;;5153718;27;20425;-74
2021/08/15 09:36:52;;;;;;;;;;;21.00;67.10;;;;;;5154024;27;20447;-74
2021/08/15 09:39:29;;;;;;;;;;;21.00;67.20;;;;;;5154986;27;19924;-74
2021/08/15 09:41:55;;;;;;;;;;;21.00;67.20;;;;;;5153919;27;19930;-74
2021/08/15 09:44:24;;;;;;;;;;;21.10;67.30;;;;;;5154355;27;20018;-74
2021/08/15 09:47:21;;;;;;;;;;;21.20;67.40;;;;;;5154246;27;19924;-74
2021/08/15 09:49:48;;;;;;;;;;;21.30;67.60;;;;;;5135493;27;19923;-75
2021/08/15 09:52:16;;;;;;;;;;;21.50;67.20;;;;;;5153128;27;19923;-74
2021/08/15 09:54:51;;;;;;;;;;;21.80;66.70;;;;;;5154207;27;20266;-74
2021/08/15 09:57:28;;;;;;;;;;;21.90;66.10;;;;;;5153520;27;20298;-74
2021/08/15 09:59:54;;;;;;;;;;;22.00;66.00;;;;;;5081644;27;19923;-74
2021/08/15 10:02:21;;;;;;;;;;;22.00;65.70;;;;;;5153712;27;19927;-75
2021/08/15 10:04:47;;;;;;;;;;;22.10;65.80;;;;;;5154021;27;19927;-75
2021/08/15 10:07:13;;;;;;;;;;;22.10;65.80;;;;;;5154347;27;19923;-75
2021/08/15 10:09:40;;;;;;;;;;;22.30;65.70;;;;;;5153789;27;20493;-75
2021/08/15 10:12:07;;;;;;;;;;;22.60;64.90;;;;;;5153944;27;19937;-75
2021/08/15 10:14:33;;;;;;;;;;;22.80;63.80;;;;;;5153722;27;19985;-74
2021/08/15 10:17:04;;;;;;;;;;;22.80;63.50;;;;;;5153425;27;19934;-74
2021/08/15 10:19:36;;;;;;;;;;;22.70;63.10;;;;;;5153509;27;19931;-77
2021/08/15 10:22:03;;;;;;;;;;;22.70;63.20;;;;;;5153840;27;19999;-74
2021/08/15 10:24:48;;;;;;;;;;;22.60;63.30;;;;;;5154099;27;19927;-74
2021/08/15 10:27:37;;;;;;;;;;;22.60;63.40;;;;;;5139983;27;19923;-75
2021/08/15 10:30:03;;;;;;;;;;;22.50;63.40;;;;;;5147562;27;20393;-75
2021/08/15 10:32:29;;;;;;;;;;;22.30;63.80;;;;;;5153623;27;19923;-74
2021/08/15 10:34:57;;;;;;;;;;;22.30;64.00;;;;;;5154062;27;19923;-75
2021/08/15 10:37:26;;;;;;;;;;;22.30;64.40;;;;;;5153782;27;19927;-75
2021/08/15 10:39:53;;;;;;;;;;;22.20;64.70;;;;;;5153782;27;19923;-74
2021/08/15 10:42:38;;;;;;;;;;;22.10;65.10;;;;;;5152583;27;19938;-74
2021/08/15 10:45:08;;;;;;;;;;;22.00;65.40;;;;;;5155165;27;20009;-74
2021/08/15 10:47:36;;;;;;;;;;;22.10;65.40;;;;;;5143066;27;19934;-74
2021/08/15 10:50:03;;;;;;;;;;;22.10;65.40;;;;;;5157652;27;19923;-74
2021/08/15 10:52:37;;;;;;;;;;;22.20;65.50;;;;;;5157309;27;19924;-74
2021/08/15 10:55:06;;;;;;;;;;;22.20;65.30;;;;;;5157461;27;20014;-75
2021/08/15 10:57:42;;;;;;;;;;;22.20;65.10;;;;;;5156912;27;19923;-74
2021/08/15 11:00:28;;;;;;;;;;;22.30;65.00;;;;;;5157255;27;19923;-75
2021/08/15 11:03:22;;;;;;;;;;;22.30;65.00;;;;;;5143261;27;19972;-75
2021/08/15 11:05:49;;;;;;;;;;;22.30;64.80;;;;;;5138553;27;19930;-75
2021/08/15 11:08:34;;;;;;;;;;;22.30;64.70;;;;;;5157099;27;19923;-74
2021/08/15 11:11:08;;;;;;;;;;;22.40;64.70;;;;;;5157218;27;19957;-74
2021/08/15 11:13:35;;;;;;;;;;;22.40;65.20;;;;;;5156772;27;19923;-75
2021/08/15 11:16:20;;;;;;;;;;;22.50;65.40;;;;;;5156648;27;20301;-75
2021/08/15 11:19:06;;;;;;;;;;;22.60;65.10;;;;;;5148049;27;20022;-74
2021/08/15 11:21:51;;;;;;;;;;;22.60;64.90;;;;;;5157161;27;19931;-74
2021/08/15 11:24:21;;;;;;;;;;;22.70;64.40;;;;;;5156332;27;19983;-75
2021/08/15 11:26:48;;;;;;;;;;;22.80;64.10;;;;;;5156331;27;19931;-75
2021/08/15 11:29:18;;;;;;;;;;;22.80;64.10;;;;;;5156803;27;19977;-75
2021/08/15 11:31:46;;;;;;;;;;;22.90;64.00;;;;;;5156756;27;20518;-75
2021/08/15 11:34:13;;;;;;;;;;;22.90;63.70;;;;;;5156156;27;20021;-75
2021/08/15 11:36:39;;;;;;;;;;;23.00;63.70;;;;;;5156879;27;19924;-75
2021/08/15 11:39:08;;;;;;;;;;;23.10;63.70;;;;;;5156331;27;20384;-75
2021/08/15 11:41:35;;;;;;;;;;;23.30;63.70;;;;;;5156814;27;19923;-75
2021/08/15 11:44:02;;;;;;;;;;;23.40;62.60;;;;;;5156272;27;20446;-75
2021/08/15 11:46:28;;;;;;;;;;;23.40;62.70;;;;;;5156597;27;20442;-75
2021/08/15 11:48:55;;;;;;;;;;;23.50;61.60;;;;;;5156126;27;19923;-75
2021/08/15 11:51:21;;;;;;;;;;;23.30;61.70;;;;;;5156667;27;19923;-74
2021/08/15 11:53:48;;;;;;;;;;;23.20;62.80;;;;;;5156215;27;19993;-75
2021/08/15 11:56:16;;;;;;;;;;;23.20;62.90;;;;;;5155887;27;19923;-75
2021/08/15 11:58:44;;;;;;;;;;;23.40;63.00;;;;;;5155357;27;20294;-75
2021/08/15 12:01:11;;;;;;;;;;;23.50;62.30;;;;;;5156743;27;19930;-74
2021/08/15 12:03:40;;;;;;;;;;;23.70;61.90;;;;;;5156388;27;20391;-75
2021/08/15 12:06:22;;;;;;;;;;;23.80;61.80;;;;;;5141142;27;20417;-75
2021/08/15 12:08:59;;;;;;;;;;;23.90;61.70;;;;;;5155323;27;19923;-75
2021/08/15 12:11:54;;;;;;;;;;;24.10;61.60;;;;;;5156204;27;19927;-74
2021/08/15 12:14:34;;;;;;;;;;;24.30;60.80;;;;;;5155020;27;20446;-75
2021/08/15 12:17:45;;;;;;;;;;;24.50;59.60;;;;;;5146906;27;19923;-74
2021/08/15 12:20:21;;;;;;;;;;;24.60;59.60;;;;;;5145558;27;20000;-74
2021/08/15 12:23:15;;;;;;;;;;;24.80;58.00;;;;;;5155833;27;19918;-75
2021/08/15 12:26:06;;;;;;;;;;;24.80;57.40;;;;;;5095155;27;19923;-75
2021/08/15 12:29:00;;;;;;;;;;;24.90;57.50;;;;;;5154045;27;19963;-74
2021/08/15 12:31:34;;;;;;;;;;;25.00;57.60;;;;;;5155490;27;19930;-74
2021/08/15 12:34:11;;;;;;;;;;;25.00;58.20;;;;;;5155400;27;19934;-75
2021/08/15 12:37:29;;;;;;;;;;;25.10;58.30;;;;;;5155433;27;19945;-75
2021/08/15 12:40:18;;;;;;;;;;;25.20;58.30;;;;;;5154290;27;19934;-75
2021/08/15 12:42:54;;;;;;;;;;;25.20;57.30;;;;;;5155047;27;20382;-74
2021/08/15 12:45:41;;;;;;;;;;;25.10;57.00;;;;;;5155254;27;19923;-74
2021/08/15 12:48:36;;;;;;;;;;;25.20;56.90;;;;;;5154458;27;19976;-75
2021/08/15 12:51:03;;;;;;;;;;;25.20;56.20;;;;;;5155293;27;19923;-75
2021/08/15 12:53:32;;;;;;;;;;;25.20;56.30;;;;;;5154466;27;20006;-75
2021/08/15 12:56:13;;;;;;;;;;;25.20;56.70;;;;;;5155163;27;20271;-75
2021/08/15 12:58:40;;;;;;;;;;;25.20;56.30;;;;;;5082824;27;19923;-75
2021/08/15 13:01:06;;;;;;;;;;;25.20;55.90;;;;;;5155163;27;19924;-75
2021/08/15 13:03:34;;;;;;;;;;;25.30;56.00;;;;;;5155349;27;19974;-74
2021/08/15 13:06:03;;;;;;;;;;;25.20;55.40;;;;;;5154911;27;20398;-75
2021/08/15 13:08:30;;;;;;;;;;;25.20;55.70;;;;;;5154300;27;19923;-75
2021/08/15 13:10:56;;;;;;;;;;;25.20;55.90;;;;;;5154967;27;19923;-74
2021/08/15 13:13:23;;;;;;;;;;;25.10;55.80;;;;;;5154795;27;19923;-75
2021/08/15 13:15:49;;;;;;;;;;;25.00;55.30;;;;;;5155131;27;19927;-75
2021/08/15 13:18:18;;;;;;;;;;;25.00;55.60;;;;;;5154385;27;19935;-75
2021/08/15 13:20:45;;;;;;;;;;;24.90;55.10;;;;;;5154879;27;19923;-75
2021/08/15 13:23:12;;;;;;;;;;;24.80;55.20;;;;;;5154947;27;19923;-75
2021/08/15 13:25:38;;;;;;;;;;;24.90;55.40;;;;;;5154254;27;19934;-75
2021/08/15 13:28:05;;;;;;;;;;;25.00;54.20;;;;;;5155287;27;19989;-75
2021/08/15 13:30:31;;;;;;;;;;;25.10;53.80;;;;;;5154543;27;19930;-75
2021/08/15 13:33:01;;;;;;;;;;;25.10;53.40;;;;;;5136329;27;19927;-75
2021/08/15 13:35:27;;;;;;;;;;;25.10;52.70;;;;;;5154491;27;19958;-75
2021/08/15 13:37:55;;;;;;;;;;;25.10;52.10;;;;;;5119033;27;19923;-75
2021/08/15 13:40:22;;;;;;;;;;;25.10;51.50;;;;;;5154045;27;19972;-75
2021/08/15 13:42:48;;;;;;;;;;;25.00;51.00;;;;;;5135475;27;19923;-74
2021/08/15 13:45:15;;;;;;;;;;;25.00;51.00;;;;;;5154159;27;19923;-75
2021/08/15 13:47:43;;;;;;;;;;;25.00;51.00;;;;;;5154422;27;19927;-75
2021/08/15 13:50:10;;;;;;;;;;;25.00;51.00;;;;;;5154422;27;19923;-75
2021/08/15 13:52:36;;;;;;;;;;;25.00;51.40;;;;;;5154490;27;20402;-74
2021/08/15 13:55:03;;;;;;;;;;;25.00;51.50;;;;;;5135262;27;19962;-75
2021/08/15 13:57:30;;;;;;;;;;;25.10;51.60;;;;;;5154143;27;19923;-75
2021/08/15 13:59:56;;;;;;;;;;;25.10;51.00;;;;;;5153719;27;20312;-75
2021/08/15 14:02:22;;;;;;;;;;;25.10;50.40;;;;;;5153950;27;20301;-75
2021/08/15 14:04:49;;;;;;;;;;;25.20;50.60;;;;;;5154019;27;19930;-75
2021/08/15 14:07:15;;;;;;;;;;;25.10;50.10;;;;;;5154117;27;20002;-74
2021/08/15 14:09:42;;;;;;;;;;;25.10;50.40;;;;;;5153646;27;20297;-75
2021/08/15 14:12:08;;;;;;;;;;;25.00;50.80;;;;;;5154141;27;20018;-75
2021/08/15 14:14:34;;;;;;;;;;;24.90;50.70;;;;;;5153779;27;19954;-75
2021/08/15 14:17:03;;;;;;;;;;;24.90;51.00;;;;;;5134795;27;20609;-75
2021/08/15 14:19:29;;;;;;;;;;;24.90;51.10;;;;;;5152856;27;20425;-75
2021/08/15 14:21:56;;;;;;;;;;;24.90;51.10;;;;;;5153863;27;19923;-74
2021/08/15 14:24:22;;;;;;;;;;;24.80;51.60;;;;;;5152931;27;19929;-75
2021/08/15 14:26:48;;;;;;;;;;;24.70;51.70;;;;;;5134867;27;19934;-75
2021/08/15 14:29:15;;;;;;;;;;;24.70;51.90;;;;;;5153613;27;20307;-75
2021/08/15 14:31:41;;;;;;;;;;;24.80;51.70;;;;;;5153046;27;19923;-75
2021/08/15 14:34:09;;;;;;;;;;;24.80;51.20;;;;;;5153686;27;19923;-75
2021/08/15 14:36:36;;;;;;;;;;;24.90;51.20;;;;;;5153871;27;19930;-75
2021/08/15 14:39:03;;;;;;;;;;;25.00;51.10;;;;;;5153272;27;19927;-75
2021/08/15 14:41:29;;;;;;;;;;;25.00;51.20;;;;;;5153719;27;19935;-75
2021/08/15 14:43:56;;;;;;;;;;;25.00;50.30;;;;;;5134728;27;19923;-74
2021/08/15 14:46:22;;;;;;;;;;;25.00;50.60;;;;;;5153113;27;20393;-73